sensor_id;sensor_type;location;lat;lon;timestamp;pressure;altitude;pressure_sealevel;temperature;humidity
18201;BME280;9226;47.858;9.594;2023-07-13T00:01:33;95256.50;;;18.97;94.39
18201;BME280;9226;47.858;9.594;2023-07-13T00:03:59;95264.28;;;18.92;95.27
18201;BME280;9226;47.858;9.594;2023-07-13T00:06:24;95274.50;;;18.97;94.64
18201;BME280;9226;47.858;9.594;2023-07-13T00:08:50;95278.03;;;18.97;94.70
18201;BME280;9226;47.858;9.594;2023-07-13T00:11:16;95278.03;;;18.97;94.39
18201;BME280;9226;47.858;9.594;2023-07-13T00:13:42;95267.28;;;18.97;93.83
18201;BME280;9226;47.858;9.594;2023-07-13T00:16:09;95273.50;;;18.98;93.23
18201;BME280;9226;47.858;9.594;2023-07-13T00:18:35;95279.41;;;18.93;93.62
18201;BME280;9226;47.858;9.594;2023-07-13T00:21:01;95286.66;;;18.93;93.49
18201;BME280;9226;47.858;9.594;2023-07-13T00:23:35;95288.13;;;18.95;93.20
18201;BME280;9226;47.858;9.594;2023-07-13T00:26:02;95286.16;;;18.89;94.00
18201;BME280;9226;47.858;9.594;2023-07-13T00:28:28;95295.63;;;18.85;94.76
18201;BME280;9226;47.858;9.594;2023-07-13T00:30:53;95284.78;;;18.93;94.48
18201;BME280;9226;47.858;9.594;2023-07-13T00:33:19;95290.09;;;19.02;93.57
18201;BME280;9226;47.858;9.594;2023-07-13T00:35:48;95290.69;;;19.12;92.94
18201;BME280;9226;47.858;9.594;2023-07-13T00:38:13;95297.81;;;19.05;93.73
18201;BME280;9226;47.858;9.594;2023-07-13T00:40:39;95298.53;;;18.98;93.27
18201;BME280;9226;47.858;9.594;2023-07-13T00:43:12;95293.78;;;19.01;94.28
18201;BME280;9226;47.858;9.594;2023-07-13T00:48:11;95281.31;;;19.08;92.63
18201;BME280;9226;47.858;9.594;2023-07-13T00:50:37;95286.09;;;18.97;94.16
18201;BME280;9226;47.858;9.594;2023-07-13T00:53:02;95286.41;;;19.03;93.60
18201;BME280;9226;47.858;9.594;2023-07-13T00:55:28;95284.81;;;19.08;93.07
18201;BME280;9226;47.858;9.594;2023-07-13T00:57:54;95284.09;;;19.14;92.25
18201;BME280;9226;47.858;9.594;2023-07-13T01:00:22;95289.13;;;19.17;91.87
18201;BME280;9226;47.858;9.594;2023-07-13T01:02:48;95282.09;;;19.16;91.88
18201;BME280;9226;47.858;9.594;2023-07-13T01:05:20;95282.91;;;19.17;92.11
18201;BME280;9226;47.858;9.594;2023-07-13T01:07:48;95282.75;;;19.19;92.03
18201;BME280;9226;47.858;9.594;2023-07-13T01:10:15;95285.44;;;19.19;91.96
18201;BME280;9226;47.858;9.594;2023-07-13T01:12:41;95287.06;;;19.20;91.88
18201;BME280;9226;47.858;9.594;2023-07-13T01:15:42;95286.03;;;19.06;93.15
18201;BME280;9226;47.858;9.594;2023-07-13T01:18:11;95278.63;;;19.08;92.80
18201;BME280;9226;47.858;9.594;2023-07-13T01:20:38;95274.56;;;19.12;91.79
18201;BME280;9226;47.858;9.594;2023-07-13T01:23:10;95269.19;;;19.12;92.15
18201;BME280;9226;47.858;9.594;2023-07-13T01:25:37;95270.47;;;19.16;91.95
18201;BME280;9226;47.858;9.594;2023-07-13T01:28:07;95273.81;;;19.18;91.96
18201;BME280;9226;47.858;9.594;2023-07-13T01:30:35;95275.50;;;19.19;91.65
18201;BME280;9226;47.858;9.594;2023-07-13T01:33:00;95271.78;;;19.20;91.58
18201;BME280;9226;47.858;9.594;2023-07-13T01:35:27;95270.94;;;19.20;91.47
18201;BME280;9226;47.858;9.594;2023-07-13T01:37:53;95273.63;;;19.20;91.43
18201;BME280;9226;47.858;9.594;2023-07-13T01:40:19;95278.81;;;19.21;91.12
18201;BME280;9226;47.858;9.594;2023-07-13T01:42:45;95271.97;;;19.19;91.50
18201;BME280;9226;47.858;9.594;2023-07-13T01:45:10;95276.50;;;19.18;91.96
18201;BME280;9226;47.858;9.594;2023-07-13T01:47:36;95280.88;;;19.19;91.48
18201;BME280;9226;47.858;9.594;2023-07-13T01:50:01;95267.25;;;19.21;91.29
18201;BME280;9226;47.858;9.594;2023-07-13T01:52:27;95275.50;;;19.19;91.41
18201;BME280;9226;47.858;9.594;2023-07-13T01:54:52;95276.50;;;19.18;91.74
18201;BME280;9226;47.858;9.594;2023-07-13T01:57:18;95280.88;;;19.19;91.72
18201;BME280;9226;47.858;9.594;2023-07-13T01:59:43;95280.16;;;19.25;91.10
18201;BME280;9226;47.858;9.594;2023-07-13T02:02:08;95278.28;;;19.26;90.96
18201;BME280;9226;47.858;9.594;2023-07-13T02:04:34;95278.00;;;19.21;91.62
18201;BME280;9226;47.858;9.594;2023-07-13T02:07:00;95278.81;;;19.21;90.98
18201;BME280;9226;47.858;9.594;2023-07-13T02:09:25;95271.63;;;19.22;90.55
18201;BME280;9226;47.858;9.594;2023-07-13T02:11:50;95272.16;;;19.17;90.97
18201;BME280;9226;47.858;9.594;2023-07-13T02:14:16;95260.09;;;19.13;91.03
18201;BME280;9226;47.858;9.594;2023-07-13T02:16:42;95263.44;;;19.15;91.17
18201;BME280;9226;47.858;9.594;2023-07-13T02:19:08;95263.25;;;19.16;92.11
18201;BME280;9226;47.858;9.594;2023-07-13T02:21:34;95253.97;;;19.19;92.04
18201;BME280;9226;47.858;9.594;2023-07-13T02:23:59;95254.81;;;19.20;91.22
18201;BME280;9226;47.858;9.594;2023-07-13T02:26:25;95258.06;;;19.15;91.30
18201;BME280;9226;47.858;9.594;2023-07-13T02:28:51;95267.44;;;19.19;90.90
18201;BME280;9226;47.858;9.594;2023-07-13T02:31:16;95268.81;;;19.15;92.03
18201;BME280;9226;47.858;9.594;2023-07-13T02:33:42;95263.91;;;19.19;92.40
18201;BME280;9226;47.858;9.594;2023-07-13T02:36:07;95263.44;;;19.15;92.44
18201;BME280;9226;47.858;9.594;2023-07-13T02:38:33;95259.00;;;19.22;92.50
18201;BME280;9226;47.858;9.594;2023-07-13T02:41:00;95269.38;;;19.25;92.80
18201;BME280;9226;47.858;9.594;2023-07-13T02:43:26;95273.41;;;19.29;92.17
18201;BME280;9226;47.858;9.594;2023-07-13T02:45:52;95274.03;;;19.31;91.94
18201;BME280;9226;47.858;9.594;2023-07-13T02:48:17;95278.22;;;19.34;92.21
18201;BME280;9226;47.858;9.594;2023-07-13T02:50:44;95282.75;;;19.33;92.19
18201;BME280;9226;47.858;9.594;2023-07-13T02:53:10;95288.81;;;19.36;92.22
18201;BME280;9226;47.858;9.594;2023-07-13T02:55:35;95288.13;;;19.33;92.50
18201;BME280;9226;47.858;9.594;2023-07-13T02:58:01;95284.72;;;19.40;91.54
18201;BME280;9226;47.858;9.594;2023-07-13T03:00:27;95288.72;;;19.44;91.36
18201;BME280;9226;47.858;9.594;2023-07-13T03:02:53;95286.84;;;19.44;91.84
18201;BME280;9226;47.858;9.594;2023-07-13T03:05:18;95285.84;;;19.45;91.63
18201;BME280;9226;47.858;9.594;2023-07-13T03:07:44;95289.19;;;19.47;91.52
18201;BME280;9226;47.858;9.594;2023-07-13T03:10:10;95293.38;;;19.50;91.35
18201;BME280;9226;47.858;9.594;2023-07-13T03:12:35;95292.31;;;19.51;91.59
18201;BME280;9226;47.858;9.594;2023-07-13T03:15:01;95285.28;;;19.50;91.23
18201;BME280;9226;47.858;9.594;2023-07-13T03:17:26;95290.19;;;19.46;91.41
18201;BME280;9226;47.858;9.594;2023-07-13T03:19:51;95282.25;;;19.53;91.00
18201;BME280;9226;47.858;9.594;2023-07-13T03:22:17;95289.28;;;19.54;91.50
18201;BME280;9226;47.858;9.594;2023-07-13T03:24:44;95290.94;;;19.55;91.29
18201;BME280;9226;47.858;9.594;2023-07-13T03:27:09;95289.75;;;19.58;91.00
18201;BME280;9226;47.858;9.594;2023-07-13T03:29:35;95293.47;;;19.57;91.33
18201;BME280;9226;47.858;9.594;2023-07-13T03:32:00;95303.41;;;19.56;91.60
18201;BME280;9226;47.858;9.594;2023-07-13T03:34:26;95304.88;;;19.59;91.46
18201;BME280;9226;47.858;9.594;2023-07-13T03:36:54;95302.63;;;19.62;91.16
18201;BME280;9226;47.858;9.594;2023-07-13T03:39:20;95306.81;;;19.65;90.34
18201;BME280;9226;47.858;9.594;2023-07-13T03:41:45;95307.00;;;19.63;90.36
18201;BME280;9226;47.858;9.594;2023-07-13T03:44:11;95316.09;;;19.62;91.07
18201;BME280;9226;47.858;9.594;2023-07-13T03:46:36;95316.75;;;19.64;90.52
18201;BME280;9226;47.858;9.594;2023-07-13T03:49:04;95321.84;;;19.59;90.44
18201;BME280;9226;47.858;9.594;2023-07-13T03:51:30;95320.69;;;19.39;92.03
18201;BME280;9226;47.858;9.594;2023-07-13T03:53:56;95313.66;;;19.38;91.97
18201;BME280;9226;47.858;9.594;2023-07-13T03:56:22;95319.69;;;19.40;92.01
18201;BME280;9226;47.858;9.594;2023-07-13T03:58:49;95315.63;;;19.44;91.48
18201;BME280;9226;47.858;9.594;2023-07-13T04:01:16;95317.19;;;19.38;91.40
18201;BME280;9226;47.858;9.594;2023-07-13T04:03:42;95323.03;;;19.42;90.78
18201;BME280;9226;47.858;9.594;2023-07-13T04:06:16;95324.59;;;19.36;91.48
18201;BME280;9226;47.858;9.594;2023-07-13T04:08:47;95320.91;;;19.37;91.91
18201;BME280;9226;47.858;9.594;2023-07-13T04:11:13;95322.56;;;19.38;92.09
18201;BME280;9226;47.858;9.594;2023-07-13T04:13:38;95327.56;;;19.41;92.19
18201;BME280;9226;47.858;9.594;2023-07-13T04:16:04;95331.41;;;19.47;91.70
18201;BME280;9226;47.858;9.594;2023-07-13T04:18:29;95328.41;;;19.42;91.68
18201;BME280;9226;47.858;9.594;2023-07-13T04:20:54;95335.94;;;19.46;90.66
18201;BME280;9226;47.858;9.594;2023-07-13T04:23:20;95336.41;;;19.50;90.48
18201;BME280;9226;47.858;9.594;2023-07-13T04:25:46;95331.41;;;19.47;90.48
18201;BME280;9226;47.858;9.594;2023-07-13T04:28:18;95337.16;;;19.44;90.72
18201;BME280;9226;47.858;9.594;2023-07-13T04:30:43;95337.97;;;19.44;90.76
18201;BME280;9226;47.858;9.594;2023-07-13T04:33:09;95337.50;;;19.41;91.31
18201;BME280;9226;47.858;9.594;2023-07-13T04:35:35;95331.41;;;19.47;91.18
18201;BME280;9226;47.858;9.594;2023-07-13T04:38:00;95342.34;;;19.45;91.22
18201;BME280;9226;47.858;9.594;2023-07-13T04:40:27;95340.47;;;19.46;91.43
18201;BME280;9226;47.858;9.594;2023-07-13T04:42:52;95340.47;;;19.46;92.27
18201;BME280;9226;47.858;9.594;2023-07-13T04:45:17;95343.44;;;19.51;92.24
18201;BME280;9226;47.858;9.594;2023-07-13T04:47:43;95338.19;;;19.58;92.19
18201;BME280;9226;47.858;9.594;2023-07-13T04:50:09;95341.91;;;19.57;92.42
18201;BME280;9226;47.858;9.594;2023-07-13T04:52:36;95349.44;;;19.61;92.06
18201;BME280;9226;47.858;9.594;2023-07-13T04:55:01;95349.69;;;19.66;92.03
18201;BME280;9226;47.858;9.594;2023-07-13T04:57:27;95354.72;;;19.69;92.18
18201;BME280;9226;47.858;9.594;2023-07-13T04:59:53;95355.72;;;19.77;91.80
18201;BME280;9226;47.858;9.594;2023-07-13T05:02:20;95353.47;;;19.80;91.51
18201;BME280;9226;47.858;9.594;2023-07-13T05:04:47;95349.50;;;19.91;90.99
18201;BME280;9226;47.858;9.594;2023-07-13T05:07:12;95357.25;;;19.86;91.98
18201;BME280;9226;47.858;9.594;2023-07-13T05:09:38;95360.25;;;19.91;91.94
18201;BME280;9226;47.858;9.594;2023-07-13T05:12:06;95364.06;;;19.97;92.11
18201;BME280;9226;47.858;9.594;2023-07-13T05:14:31;95359.16;;;20.00;91.76
18201;BME280;9226;47.858;9.594;2023-07-13T05:16:57;95362.84;;;19.99;91.58
18201;BME280;9226;47.858;9.594;2023-07-13T05:19:22;95362.38;;;20.11;90.44
18201;BME280;9226;47.858;9.594;2023-07-13T05:21:48;95362.03;;;20.14;90.06
18201;BME280;9226;47.858;9.594;2023-07-13T05:24:13;95364.06;;;20.12;90.59
18201;BME280;9226;47.858;9.594;2023-07-13T05:26:39;95369.66;;;20.10;90.62
18201;BME280;9226;47.858;9.594;2023-07-13T05:29:04;95375.50;;;20.14;90.85
18201;BME280;9226;47.858;9.594;2023-07-13T05:31:29;95370.28;;;20.27;90.15
18201;BME280;9226;47.858;9.594;2023-07-13T05:33:55;95379.50;;;20.18;91.24
18201;BME280;9226;47.858;9.594;2023-07-13T05:36:20;95370.81;;;20.22;91.29
18201;BME280;9226;47.858;9.594;2023-07-13T05:38:45;95374.84;;;20.27;90.31
18201;BME280;9226;47.858;9.594;2023-07-13T05:41:11;95375.22;;;20.38;89.85
18201;BME280;9226;47.858;9.594;2023-07-13T05:43:36;95377.78;;;20.47;90.13
18201;BME280;9226;47.858;9.594;2023-07-13T05:46:02;95384.94;;;20.54;89.94
18201;BME280;9226;47.858;9.594;2023-07-13T05:48:27;95387.91;;;20.59;89.17
18201;BME280;9226;47.858;9.594;2023-07-13T05:50:52;95393.09;;;20.61;88.43
18201;BME280;9226;47.858;9.594;2023-07-13T05:53:18;95387.00;;;20.67;87.42
18201;BME280;9226;47.858;9.594;2023-07-13T05:55:45;95392.38;;;20.67;86.85
18201;BME280;9226;47.858;9.594;2023-07-13T05:58:18;95401.13;;;20.69;86.68
18201;BME280;9226;47.858;9.594;2023-07-13T06:00:44;95404.38;;;20.65;85.13
18201;BME280;9226;47.858;9.594;2023-07-13T06:03:09;95403.34;;;20.66;85.38
18201;BME280;9226;47.858;9.594;2023-07-13T06:05:36;95407.22;;;20.63;84.93
18201;BME280;9226;47.858;9.594;2023-07-13T06:08:03;95410.78;;;20.64;84.95
18201;BME280;9226;47.858;9.594;2023-07-13T06:10:31;95412.91;;;20.68;84.81
18201;BME280;9226;47.858;9.594;2023-07-13T06:12:57;95421.66;;;20.70;84.92
18201;BME280;9226;47.858;9.594;2023-07-13T06:15:22;95419.34;;;20.67;84.73
18201;BME280;9226;47.858;9.594;2023-07-13T06:17:48;95426.00;;;20.71;84.89
18201;BME280;9226;47.858;9.594;2023-07-13T06:20:14;95426.69;;;20.73;84.85
18201;BME280;9226;47.858;9.594;2023-07-13T06:22:39;95421.94;;;20.75;84.73
18201;BME280;9226;47.858;9.594;2023-07-13T06:25:05;95424.44;;;20.77;84.88
18201;BME280;9226;47.858;9.594;2023-07-13T06:27:30;95423.22;;;20.80;85.37
18201;BME280;9226;47.858;9.594;2023-07-13T06:29:56;95425.75;;;20.81;85.73
18201;BME280;9226;47.858;9.594;2023-07-13T06:32:21;95432.88;;;20.89;85.32
18201;BME280;9226;47.858;9.594;2023-07-13T06:34:46;95431.22;;;20.88;85.53
18201;BME280;9226;47.858;9.594;2023-07-13T06:37:12;95442.25;;;20.93;84.93
18201;BME280;9226;47.858;9.594;2023-07-13T06:39:37;95438.63;;;20.86;84.04
18201;BME280;9226;47.858;9.594;2023-07-13T06:42:03;95437.63;;;20.87;83.42
18201;BME280;9226;47.858;9.594;2023-07-13T06:44:29;95445.72;;;20.87;83.86
18201;BME280;9226;47.858;9.594;2023-07-13T06:46:54;95443.56;;;20.82;84.02
18201;BME280;9226;47.858;9.594;2023-07-13T06:49:19;95450.34;;;20.93;83.87
18201;BME280;9226;47.858;9.594;2023-07-13T06:51:45;95442.25;;;20.93;83.56
18201;BME280;9226;47.858;9.594;2023-07-13T06:54:10;95445.78;;;20.93;83.85
18201;BME280;9226;47.858;9.594;2023-07-13T06:56:35;95448.28;;;20.95;83.31
18201;BME280;9226;47.858;9.594;2023-07-13T06:59:01;95457.25;;;20.95;82.40
18201;BME280;9226;47.858;9.594;2023-07-13T07:01:26;95452.41;;;20.91;82.27
18201;BME280;9226;47.858;9.594;2023-07-13T07:03:51;95457.13;;;20.89;81.91
18201;BME280;9226;47.858;9.594;2023-07-13T07:06:19;95454.44;;;20.89;81.36
18201;BME280;9226;47.858;9.594;2023-07-13T07:08:45;95448.28;;;20.95;81.14
18201;BME280;9226;47.858;9.594;2023-07-13T07:11:17;95452.94;;;21.01;80.78
18201;BME280;9226;47.858;9.594;2023-07-13T07:13:43;95456.94;;;21.05;80.68
18201;BME280;9226;47.858;9.594;2023-07-13T07:16:08;95451.41;;;21.13;80.58
18201;BME280;9226;47.858;9.594;2023-07-13T07:18:34;95458.31;;;21.16;80.73
18201;BME280;9226;47.858;9.594;2023-07-13T07:21:00;95461.44;;;21.20;80.48
18201;BME280;9226;47.858;9.594;2023-07-13T07:23:25;95466.28;;;21.24;80.29
18201;BME280;9226;47.858;9.594;2023-07-13T07:25:51;95465.31;;;21.32;80.36
18201;BME280;9226;47.858;9.594;2023-07-13T07:28:17;95472.00;;;21.36;80.06
18201;BME280;9226;47.858;9.594;2023-07-13T07:30:46;95476.19;;;21.39;79.48
18201;BME280;9226;47.858;9.594;2023-07-13T07:33:12;95472.09;;;21.43;78.51
18201;BME280;9226;47.858;9.594;2023-07-13T07:35:38;95469.97;;;21.38;77.35
18201;BME280;9226;47.858;9.594;2023-07-13T07:38:04;95471.16;;;21.36;76.81
18201;BME280;9226;47.858;9.594;2023-07-13T07:40:29;95470.03;;;21.45;77.22
18201;BME280;9226;47.858;9.594;2023-07-13T07:42:55;95455.59;;;21.53;77.56
18201;BME280;9226;47.858;9.594;2023-07-13T07:45:21;95460.47;;;21.64;77.02
18201;BME280;9226;47.858;9.594;2023-07-13T07:47:46;95466.66;;;21.79;77.03
18201;BME280;9226;47.858;9.594;2023-07-13T07:50:12;95474.56;;;21.81;76.19
18201;BME280;9226;47.858;9.594;2023-07-13T07:52:38;95481.28;;;21.92;74.63
18201;BME280;9226;47.858;9.594;2023-07-13T07:55:05;95482.63;;;22.02;74.81
18201;BME280;9226;47.858;9.594;2023-07-13T07:57:31;95483.34;;;22.11;73.51
18201;BME280;9226;47.858;9.594;2023-07-13T07:59:56;95481.66;;;22.32;73.99
18201;BME280;9226;47.858;9.594;2023-07-13T08:02:21;95481.31;;;22.48;72.42
18201;BME280;9226;47.858;9.594;2023-07-13T08:04:47;95481.31;;;22.48;69.04
18201;BME280;9226;47.858;9.594;2023-07-13T08:07:12;95483.38;;;22.39;67.80
18201;BME280;9226;47.858;9.594;2023-07-13T08:09:38;95488.34;;;22.14;60.80
18201;BME280;9226;47.858;9.594;2023-07-13T08:12:04;95485.69;;;22.21;63.51
18201;BME280;9226;47.858;9.594;2023-07-13T08:14:29;95487.38;;;22.22;63.17
18201;BME280;9226;47.858;9.594;2023-07-13T08:16:55;95481.09;;;22.21;63.30
18201;BME280;9226;47.858;9.594;2023-07-13T08:19:20;95481.78;;;22.23;63.87
18201;BME280;9226;47.858;9.594;2023-07-13T08:21:45;95486.91;;;22.18;64.03
18201;BME280;9226;47.858;9.594;2023-07-13T08:24:13;95495.78;;;22.34;66.37
18201;BME280;9226;47.858;9.594;2023-07-13T08:26:39;95490.38;;;22.34;65.03
18201;BME280;9226;47.858;9.594;2023-07-13T08:29:04;95499.00;;;22.22;64.29
18201;BME280;9226;47.858;9.594;2023-07-13T08:31:30;95494.44;;;22.23;65.14
18201;BME280;9226;47.858;9.594;2023-07-13T08:33:55;95489.38;;;22.13;64.60
18201;BME280;9226;47.858;9.594;2023-07-13T08:36:20;95480.63;;;22.11;64.60
18201;BME280;9226;47.858;9.594;2023-07-13T08:38:46;95487.00;;;22.03;63.01
18201;BME280;9226;47.858;9.594;2023-07-13T08:41:14;95488.88;;;21.81;63.16
18201;BME280;9226;47.858;9.594;2023-07-13T08:43:41;95492.50;;;21.89;63.83
18201;BME280;9226;47.858;9.594;2023-07-13T08:46:24;95498.00;;;22.02;63.34
18201;BME280;9226;47.858;9.594;2023-07-13T08:48:56;95499.09;;;22.08;63.44
18201;BME280;9226;47.858;9.594;2023-07-13T08:54:35;95505.44;;;22.21;61.42
18201;BME280;9226;47.858;9.594;2023-07-13T08:57:16;95496.94;;;22.25;62.65
18201;BME280;9226;47.858;9.594;2023-07-13T08:59:43;95500.94;;;22.29;62.00
18201;BME280;9226;47.858;9.594;2023-07-13T09:02:40;95497.25;;;22.65;62.66
18201;BME280;9226;47.858;9.594;2023-07-13T09:05:13;95500.34;;;22.97;62.37
18201;BME280;9226;47.858;9.594;2023-07-13T09:10:29;95508.72;;;23.08;59.00
18201;BME280;9226;47.858;9.594;2023-07-13T09:15:37;95511.06;;;23.18;59.45
18201;BME280;9226;47.858;9.594;2023-07-13T09:18:10;95506.72;;;23.24;58.84
18201;BME280;9226;47.858;9.594;2023-07-13T09:21:03;95504.41;;;22.79;57.86
18201;BME280;9226;47.858;9.594;2023-07-13T09:23:31;95509.34;;;22.75;59.09
18201;BME280;9226;47.858;9.594;2023-07-13T09:26:04;95501.03;;;22.42;54.43
18201;BME280;9226;47.858;9.594;2023-07-13T09:28:37;95499.97;;;22.36;57.56
18201;BME280;9226;47.858;9.594;2023-07-13T09:33:41;95506.03;;;22.73;61.27
18201;BME280;9226;47.858;9.594;2023-07-13T09:36:29;95509.69;;;23.36;57.83
18201;BME280;9226;47.858;9.594;2023-07-13T09:39:03;95511.44;;;23.63;54.61
18201;BME280;9226;47.858;9.594;2023-07-13T09:46:36;95511.88;;;23.80;52.28
18201;BME280;9226;47.858;9.594;2023-07-13T09:49:02;95511.88;;;23.80;52.52
18201;BME280;9226;47.858;9.594;2023-07-13T09:51:27;95515.28;;;24.16;52.25
18201;BME280;9226;47.858;9.594;2023-07-13T09:53:53;95510.91;;;24.35;52.07
18201;BME280;9226;47.858;9.594;2023-07-13T09:56:26;95506.13;;;24.17;50.44
18201;BME280;9226;47.858;9.594;2023-07-13T09:58:52;95508.19;;;24.28;47.68
18201;BME280;9226;47.858;9.594;2023-07-13T10:01:35;95514.03;;;24.18;43.93
18201;BME280;9226;47.858;9.594;2023-07-13T10:04:02;95509.69;;;24.58;48.21
18201;BME280;9226;47.858;9.594;2023-07-13T10:06:35;95519.03;;;24.62;49.42
18201;BME280;9226;47.858;9.594;2023-07-13T10:09:00;95519.66;;;24.57;50.72
18201;BME280;9226;47.858;9.594;2023-07-13T10:11:30;95514.44;;;24.49;46.93
18201;BME280;9226;47.858;9.594;2023-07-13T10:14:10;95525.72;;;24.72;48.19
18201;BME280;9226;47.858;9.594;2023-07-13T10:16:36;95520.31;;;24.32;48.02
18201;BME280;9226;47.858;9.594;2023-07-13T10:19:21;95524.44;;;24.55;48.09
18201;BME280;9226;47.858;9.594;2023-07-13T10:21:54;95524.69;;;24.73;48.66
18201;BME280;9226;47.858;9.594;2023-07-13T10:24:23;95518.81;;;24.77;47.48
18201;BME280;9226;47.858;9.594;2023-07-13T10:27:00;95520.28;;;24.72;46.67
18201;BME280;9226;47.858;9.594;2023-07-13T10:29:35;95521.53;;;24.63;46.66
18201;BME280;9226;47.858;9.594;2023-07-13T10:32:07;95514.47;;;24.62;46.24
18201;BME280;9226;47.858;9.594;2023-07-13T10:34:34;95517.38;;;24.47;46.91
18201;BME280;9226;47.858;9.594;2023-07-13T10:37:00;95524.25;;;24.30;48.07
18201;BME280;9226;47.858;9.594;2023-07-13T10:39:27;95524.44;;;24.08;48.05
18201;BME280;9226;47.858;9.594;2023-07-13T10:41:57;95525.28;;;24.15;47.84
18201;BME280;9226;47.858;9.594;2023-07-13T10:44:28;95527.38;;;24.20;47.53
18201;BME280;9226;47.858;9.594;2023-07-13T10:47:01;95518.19;;;24.14;46.25
18201;BME280;9226;47.858;9.594;2023-07-13T10:49:30;95525.06;;;24.03;47.00
18201;BME280;9226;47.858;9.594;2023-07-13T10:51:56;95526.84;;;23.56;48.27
18201;BME280;9226;47.858;9.594;2023-07-13T10:54:34;95532.19;;;23.43;48.05
18201;BME280;9226;47.858;9.594;2023-07-13T10:57:26;95524.47;;;23.33;47.69
18201;BME280;9226;47.858;9.594;2023-07-13T11:00:16;95533.97;;;23.71;48.34
18201;BME280;9226;47.858;9.594;2023-07-13T11:02:58;95524.84;;;23.85;46.87
18201;BME280;9226;47.858;9.594;2023-07-13T11:05:32;95525.00;;;23.77;47.78
18201;BME280;9226;47.858;9.594;2023-07-13T11:08:16;95524.59;;;23.80;47.81
18201;BME280;9226;47.858;9.594;2023-07-13T11:10:54;95520.28;;;24.06;45.95
18201;BME280;9226;47.858;9.594;2023-07-13T11:16:45;95523.63;;;24.14;45.70
18201;BME280;9226;47.858;9.594;2023-07-13T11:24:50;95517.69;;;25.04;44.75
18201;BME280;9226;47.858;9.594;2023-07-13T11:29:52;95517.28;;;25.01;44.87
18201;BME280;9226;47.858;9.594;2023-07-13T11:32:31;95508.31;;;24.93;45.24
18201;BME280;9226;47.858;9.594;2023-07-13T11:34:57;95506.81;;;25.18;45.43
18201;BME280;9226;47.858;9.594;2023-07-13T11:37:23;95503.38;;;25.42;44.72
18201;BME280;9226;47.858;9.594;2023-07-13T11:39:51;95502.41;;;25.69;43.44
18201;BME280;9226;47.858;9.594;2023-07-13T11:42:18;95502.72;;;25.86;43.52
18201;BME280;9226;47.858;9.594;2023-07-13T11:44:50;95487.41;;;25.91;42.90
18201;BME280;9226;47.858;9.594;2023-07-13T11:47:21;95489.13;;;26.17;44.85
18201;BME280;9226;47.858;9.594;2023-07-13T11:49:53;95486.38;;;25.92;42.97
18201;BME280;9226;47.858;9.594;2023-07-13T11:52:32;95481.16;;;25.59;44.57
18201;BME280;9226;47.858;9.594;2023-07-13T11:55:00;95486.38;;;25.54;44.82
18201;BME280;9226;47.858;9.594;2023-07-13T11:59:58;95493.22;;;25.70;44.97
18201;BME280;9226;47.858;9.594;2023-07-13T12:02:38;95481.59;;;25.88;43.79
18201;BME280;9226;47.858;9.594;2023-07-13T12:05:06;95487.75;;;26.08;44.97
18201;BME280;9226;47.858;9.594;2023-07-13T12:07:35;95487.84;;;26.20;44.79
18201;BME280;9226;47.858;9.594;2023-07-13T12:10:18;95488.72;;;26.39;46.16
18201;BME280;9226;47.858;9.594;2023-07-13T12:12:50;95484.66;;;25.98;45.24
18201;BME280;9226;47.858;9.594;2023-07-13T12:15:16;95483.22;;;25.57;46.54
18201;BME280;9226;47.858;9.594;2023-07-13T12:17:42;95482.72;;;25.73;47.03
18201;BME280;9226;47.858;9.594;2023-07-13T12:20:33;95473.94;;;25.71;47.97
18201;BME280;9226;47.858;9.594;2023-07-13T12:23:00;95468.97;;;25.93;47.60
18201;BME280;9226;47.858;9.594;2023-07-13T12:25:28;95468.06;;;25.81;47.39
18201;BME280;9226;47.858;9.594;2023-07-13T12:27:53;95474.47;;;25.55;47.97
18201;BME280;9226;47.858;9.594;2023-07-13T12:33:11;95468.00;;;25.88;47.47
18201;BME280;9226;47.858;9.594;2023-07-13T12:35:49;95462.22;;;26.09;48.40
18201;BME280;9226;47.858;9.594;2023-07-13T12:38:16;95461.28;;;25.97;46.73
18201;BME280;9226;47.858;9.594;2023-07-13T12:40:42;95469.47;;;26.15;47.21
18201;BME280;9226;47.858;9.594;2023-07-13T12:43:14;95465.91;;;25.58;48.25
18201;BME280;9226;47.858;9.594;2023-07-13T12:46:04;95461.38;;;25.45;46.37
18201;BME280;9226;47.858;9.594;2023-07-13T12:48:38;95461.38;;;25.45;47.09
18201;BME280;9226;47.858;9.594;2023-07-13T12:51:04;95449.00;;;25.56;46.99
18201;BME280;9226;47.858;9.594;2023-07-13T12:53:30;95452.56;;;25.50;46.85
18201;BME280;9226;47.858;9.594;2023-07-13T12:55:59;95456.94;;;25.51;47.13
18201;BME280;9226;47.858;9.594;2023-07-13T12:58:35;95446.00;;;25.64;47.65
18201;BME280;9226;47.858;9.594;2023-07-13T13:01:02;95456.50;;;25.54;48.06
18201;BME280;9226;47.858;9.594;2023-07-13T13:03:37;95449.97;;;25.23;48.76
18201;BME280;9226;47.858;9.594;2023-07-13T13:06:24;95459.22;;;25.08;47.73
18201;BME280;9226;47.858;9.594;2023-07-13T13:08:53;95452.75;;;25.03;48.78
18201;BME280;9226;47.858;9.594;2023-07-13T13:11:20;95451.00;;;24.63;48.72
18201;BME280;9226;47.858;9.594;2023-07-13T13:13:46;95454.97;;;24.74;49.93
18201;BME280;9226;47.858;9.594;2023-07-13T13:16:23;95447.47;;;24.63;49.47
18201;BME280;9226;47.858;9.594;2023-07-13T13:18:51;95444.56;;;25.16;49.28
18201;BME280;9226;47.858;9.594;2023-07-13T13:21:18;95439.63;;;25.06;48.50
18201;BME280;9226;47.858;9.594;2023-07-13T13:23:45;95442.66;;;25.23;49.67
18201;BME280;9226;47.858;9.594;2023-07-13T13:26:14;95439.50;;;25.33;48.41
18201;BME280;9226;47.858;9.594;2023-07-13T13:28:44;95442.91;;;25.54;48.01
18201;BME280;9226;47.858;9.594;2023-07-13T13:31:10;95441.53;;;25.44;46.70
18201;BME280;9226;47.858;9.594;2023-07-13T13:33:40;95442.91;;;25.54;47.38
18201;BME280;9226;47.858;9.594;2023-07-13T13:36:19;95445.28;;;25.75;46.81
18201;BME280;9226;47.858;9.594;2023-07-13T13:38:45;95442.03;;;25.98;47.43
18201;BME280;9226;47.858;9.594;2023-07-13T13:41:13;95437.91;;;26.14;47.78
18201;BME280;9226;47.858;9.594;2023-07-13T13:43:40;95431.31;;;26.29;47.08
18201;BME280;9226;47.858;9.594;2023-07-13T13:46:22;95433.72;;;26.37;46.32
18201;BME280;9226;47.858;9.594;2023-07-13T13:48:50;95440.41;;;26.41;46.15
18201;BME280;9226;47.858;9.594;2023-07-13T13:51:20;95428.22;;;26.25;45.71